sensor_id;sensor_type;location;lat;lon;timestamp;temperature;humidity
85671;DHT22;76102;50.890;3.932;2024-02-04T00:01:17;10.50;88.90
85671;DHT22;76102;50.890;3.932;2024-02-04T00:03:42;10.60;88.80
85671;DHT22;76102;50.890;3.932;2024-02-04T00:06:08;10.50;89.00
85671;DHT22;76102;50.890;3.932;2024-02-04T00:08:34;10.50;88.80
85671;DHT22;76102;50.890;3.932;2024-02-04T00:10:59;10.60;89.10
85671;DHT22;76102;50.890;3.932;2024-02-04T00:13:25;10.60;88.90
85671;DHT22;76102;50.890;3.932;2024-02-04T00:15:53;10.60;88.90
85671;DHT22;76102;50.890;3.932;2024-02-04T00:18:19;10.50;89.10
85671;DHT22;76102;50.890;3.932;2024-02-04T00:20:47;10.50;88.90
85671;DHT22;76102;50.890;3.932;2024-02-04T00:23:13;10.60;88.90
85671;DHT22;76102;50.890;3.932;2024-02-04T00:25:41;10.60;89.00
85671;DHT22;76102;50.890;3.932;2024-02-04T00:28:07;10.60;89.10
85671;DHT22;76102;50.890;3.932;2024-02-04T00:30:33;10.60;88.90
85671;DHT22;76102;50.890;3.932;2024-02-04T00:33:01;10.60;88.90
85671;DHT22;76102;50.890;3.932;2024-02-04T00:35:29;10.70;88.60
85671;DHT22;76102;50.890;3.932;2024-02-04T00:37:57;10.70;88.40
85671;DHT22;76102;50.890;3.932;2024-02-04T00:40:25;10.60;88.80
85671;DHT22;76102;50.890;3.932;2024-02-04T00:42:52;10.60;89.40
85671;DHT22;76102;50.890;3.932;2024-02-04T00:45:17;10.50;89.90
85671;DHT22;76102;50.890;3.932;2024-02-04T00:47:45;10.50;90.10
85671;DHT22;76102;50.890;3.932;2024-02-04T00:50:13;10.40;90.40
85671;DHT22;76102;50.890;3.932;2024-02-04T00:52:39;10.40;90.30
85671;DHT22;76102;50.890;3.932;2024-02-04T00:55:05;10.40;90.50
85671;DHT22;76102;50.890;3.932;2024-02-04T00:57:33;10.40;90.60
85671;DHT22;76102;50.890;3.932;2024-02-04T00:59:58;10.40;90.70
85671;DHT22;76102;50.890;3.932;2024-02-04T01:02:24;10.40;90.80
85671;DHT22;76102;50.890;3.932;2024-02-04T01:04:52;10.30;91.00
85671;DHT22;76102;50.890;3.932;2024-02-04T01:07:25;10.30;91.20
85671;DHT22;76102;50.890;3.932;2024-02-04T01:09:51;10.30;91.20
85671;DHT22;76102;50.890;3.932;2024-02-04T01:12:16;10.40;91.20
85671;DHT22;76102;50.890;3.932;2024-02-04T01:14:44;10.30;91.50
85671;DHT22;76102;50.890;3.932;2024-02-04T01:17:12;10.30;91.60
85671;DHT22;76102;50.890;3.932;2024-02-04T01:19:40;10.30;91.60
85671;DHT22;76102;50.890;3.932;2024-02-04T01:22:08;10.30;91.60
85671;DHT22;76102;50.890;3.932;2024-02-04T01:24:34;10.20;91.70
85671;DHT22;76102;50.890;3.932;2024-02-04T01:26:59;10.30;91.80
85671;DHT22;76102;50.890;3.932;2024-02-04T01:29:25;10.20;91.80
85671;DHT22;76102;50.890;3.932;2024-02-04T01:31:50;10.30;91.80
85671;DHT22;76102;50.890;3.932;2024-02-04T01:34:16;10.30;91.70
85671;DHT22;76102;50.890;3.932;2024-02-04T01:36:42;10.30;91.80
85671;DHT22;76102;50.890;3.932;2024-02-04T01:39:10;10.30;91.80
85671;DHT22;76102;50.890;3.932;2024-02-04T01:41:38;10.20;92.30
85671;DHT22;76102;50.890;3.932;2024-02-04T01:44:04;10.20;91.80
85671;DHT22;76102;50.890;3.932;2024-02-04T01:46:36;10.30;91.90
85671;DHT22;76102;50.890;3.932;2024-02-04T01:49:04;10.20;91.90
85671;DHT22;76102;50.890;3.932;2024-02-04T01:51:30;10.20;91.90
85671;DHT22;76102;50.890;3.932;2024-02-04T01:53:56;10.20;92.00
85671;DHT22;76102;50.890;3.932;2024-02-04T01:56:22;10.20;92.10
85671;DHT22;76102;50.890;3.932;2024-02-04T01:58:48;10.20;92.10
85671;DHT22;76102;50.890;3.932;2024-02-04T02:01:14;10.20;92.00
85671;DHT22;76102;50.890;3.932;2024-02-04T02:03:40;10.20;92.00
85671;DHT22;76102;50.890;3.932;2024-02-04T02:06:06;10.20;92.10
85671;DHT22;76102;50.890;3.932;2024-02-04T02:08:33;10.20;92.10
85671;DHT22;76102;50.890;3.932;2024-02-04T02:11:11;10.30;91.90
85671;DHT22;76102;50.890;3.932;2024-02-04T02:13:39;10.30;91.90
85671;DHT22;76102;50.890;3.932;2024-02-04T02:16:13;10.20;92.00
85671;DHT22;76102;50.890;3.932;2024-02-04T02:18:48;10.20;92.00
85671;DHT22;76102;50.890;3.932;2024-02-04T02:26:48;10.20;92.00
85671;DHT22;76102;50.890;3.932;2024-02-04T02:29:19;10.30;92.40
85671;DHT22;76102;50.890;3.932;2024-02-04T02:31:45;10.30;91.90
85671;DHT22;76102;50.890;3.932;2024-02-04T02:34:12;10.30;92.00
85671;DHT22;76102;50.890;3.932;2024-02-04T02:36:44;10.30;91.90
85671;DHT22;76102;50.890;3.932;2024-02-04T02:41:42;10.20;92.00
85671;DHT22;76102;50.890;3.932;2024-02-04T02:44:09;10.30;91.90
85671;DHT22;76102;50.890;3.932;2024-02-04T02:46:37;10.30;91.70
85671;DHT22;76102;50.890;3.932;2024-02-04T02:49:05;10.30;91.80
85671;DHT22;76102;50.890;3.932;2024-02-04T02:51:31;10.20;91.80
85671;DHT22;76102;50.890;3.932;2024-02-04T02:53:56;10.30;91.90
85671;DHT22;76102;50.890;3.932;2024-02-04T02:56:25;10.20;91.90
85671;DHT22;76102;50.890;3.932;2024-02-04T02:58:50;10.20;92.40
85671;DHT22;76102;50.890;3.932;2024-02-04T03:01:18;10.30;91.90
85671;DHT22;76102;50.890;3.932;2024-02-04T03:03:46;10.30;91.70
85671;DHT22;76102;50.890;3.932;2024-02-04T03:06:14;10.30;91.80
85671;DHT22;76102;50.890;3.932;2024-02-04T03:08:40;10.30;91.70
85671;DHT22;76102;50.890;3.932;2024-02-04T03:11:05;10.30;91.90
85671;DHT22;76102;50.890;3.932;2024-02-04T03:13:31;10.30;91.90
85671;DHT22;76102;50.890;3.932;2024-02-04T03:15:59;10.20;91.90
85671;DHT22;76102;50.890;3.932;2024-02-04T03:18:25;10.20;92.40
85671;DHT22;76102;50.890;3.932;2024-02-04T03:20:53;10.20;92.00
85671;DHT22;76102;50.890;3.932;2024-02-04T03:23:18;10.20;92.10
85671;DHT22;76102;50.890;3.932;2024-02-04T03:25:45;10.20;92.20
85671;DHT22;76102;50.890;3.932;2024-02-04T03:28:10;10.20;92.10
85671;DHT22;76102;50.890;3.932;2024-02-04T03:30:38;10.20;92.20
85671;DHT22;76102;50.890;3.932;2024-02-04T03:33:06;10.10;92.20
85671;DHT22;76102;50.890;3.932;2024-02-04T03:35:36;10.10;92.20
85671;DHT22;76102;50.890;3.932;2024-02-04T03:38:02;10.10;92.30
85671;DHT22;76102;50.890;3.932;2024-02-04T03:40:28;10.10;92.30
85671;DHT22;76102;50.890;3.932;2024-02-04T03:42:54;10.10;92.30
85671;DHT22;76102;50.890;3.932;2024-02-04T03:45:19;10.10;92.30
85671;DHT22;76102;50.890;3.932;2024-02-04T03:47:50;10.20;92.20
85671;DHT22;76102;50.890;3.932;2024-02-04T03:50:15;10.20;92.20
85671;DHT22;76102;50.890;3.932;2024-02-04T03:52:41;10.20;92.10
85671;DHT22;76102;50.890;3.932;2024-02-04T03:55:09;10.20;92.20
85671;DHT22;76102;50.890;3.932;2024-02-04T03:57:35;10.20;92.10
85671;DHT22;76102;50.890;3.932;2024-02-04T04:00:05;10.20;92.10
85671;DHT22;76102;50.890;3.932;2024-02-04T04:02:33;10.20;92.10
85671;DHT22;76102;50.890;3.932;2024-02-04T04:04:59;10.30;92.20
85671;DHT22;76102;50.890;3.932;2024-02-04T04:07:27;10.20;92.10
85671;DHT22;76102;50.890;3.932;2024-02-04T04:09:57;10.20;92.20
85671;DHT22;76102;50.890;3.932;2024-02-04T04:12:25;10.20;92.30
85671;DHT22;76102;50.890;3.932;2024-02-04T04:14:50;10.20;92.30
85671;DHT22;76102;50.890;3.932;2024-02-04T04:17:18;10.20;92.40
85671;DHT22;76102;50.890;3.932;2024-02-04T04:19:46;10.20;92.30
85671;DHT22;76102;50.890;3.932;2024-02-04T04:22:14;10.20;92.30
85671;DHT22;76102;50.890;3.932;2024-02-04T04:24:40;10.10;92.40
85671;DHT22;76102;50.890;3.932;2024-02-04T04:27:09;10.20;92.40
85671;DHT22;76102;50.890;3.932;2024-02-04T04:29:34;10.20;92.50
85671;DHT22;76102;50.890;3.932;2024-02-04T04:32:03;10.20;92.50
85671;DHT22;76102;50.890;3.932;2024-02-04T04:34:31;10.10;92.60
85671;DHT22;76102;50.890;3.932;2024-02-04T04:36:59;10.20;92.70
85671;DHT22;76102;50.890;3.932;2024-02-04T04:39:26;10.20;92.50
85671;DHT22;76102;50.890;3.932;2024-02-04T04:41:52;10.20;92.50
85671;DHT22;76102;50.890;3.932;2024-02-04T04:44:25;10.20;92.50
85671;DHT22;76102;50.890;3.932;2024-02-04T04:46:53;10.20;92.40
85671;DHT22;76102;50.890;3.932;2024-02-04T04:49:23;10.20;92.40
85671;DHT22;76102;50.890;3.932;2024-02-04T04:51:49;10.20;92.50
85671;DHT22;76102;50.890;3.932;2024-02-04T04:54:14;10.20;92.40
85671;DHT22;76102;50.890;3.932;2024-02-04T04:56:40;10.20;92.40
85671;DHT22;76102;50.890;3.932;2024-02-04T04:59:09;10.30;92.30
85671;DHT22;76102;50.890;3.932;2024-02-04T05:01:37;10.30;92.20
85671;DHT22;76102;50.890;3.932;2024-02-04T05:04:02;10.20;92.20
85671;DHT22;76102;50.890;3.932;2024-02-04T05:06:31;10.30;92.10
85671;DHT22;76102;50.890;3.932;2024-02-04T05:08:59;10.20;92.10
85671;DHT22;76102;50.890;3.932;2024-02-04T05:11:29;10.20;92.20
85671;DHT22;76102;50.890;3.932;2024-02-04T05:13:57;10.20;92.10
85671;DHT22;76102;50.890;3.932;2024-02-04T05:16:23;10.30;92.10
85671;DHT22;76102;50.890;3.932;2024-02-04T05:18:49;10.30;91.90
85671;DHT22;76102;50.890;3.932;2024-02-04T05:21:17;10.30;91.90
85671;DHT22;76102;50.890;3.932;2024-02-04T05:23:45;10.30;91.90
85671;DHT22;76102;50.890;3.932;2024-02-04T05:26:10;10.40;91.80
85671;DHT22;76102;50.890;3.932;2024-02-04T05:28:36;10.30;91.80
85671;DHT22;76102;50.890;3.932;2024-02-04T05:31:02;10.30;92.00
85671;DHT22;76102;50.890;3.932;2024-02-04T05:33:30;10.30;91.90
85671;DHT22;76102;50.890;3.932;2024-02-04T05:35:56;10.40;91.70
85671;DHT22;76102;50.890;3.932;2024-02-04T05:38:24;10.40;91.70
85671;DHT22;76102;50.890;3.932;2024-02-04T05:40:52;10.40;92.00
85671;DHT22;76102;50.890;3.932;2024-02-04T05:43:20;10.30;91.70
85671;DHT22;76102;50.890;3.932;2024-02-04T05:45:51;10.30;91.70
85671;DHT22;76102;50.890;3.932;2024-02-04T05:48:16;10.30;91.80
85671;DHT22;76102;50.890;3.932;2024-02-04T05:50:44;10.30;91.90
85671;DHT22;76102;50.890;3.932;2024-02-04T05:53:10;10.30;92.00
85671;DHT22;76102;50.890;3.932;2024-02-04T05:55:36;10.20;92.10
85671;DHT22;76102;50.890;3.932;2024-02-04T05:58:03;10.20;92.00
85671;DHT22;76102;50.890;3.932;2024-02-04T06:00:29;10.20;92.20
85671;DHT22;76102;50.890;3.932;2024-02-04T06:02:57;10.20;92.40
85671;DHT22;76102;50.890;3.932;2024-02-04T06:05:22;10.20;92.10
85671;DHT22;76102;50.890;3.932;2024-02-04T06:07:53;10.20;92.10
85671;DHT22;76102;50.890;3.932;2024-02-04T06:10:18;10.20;92.00
85671;DHT22;76102;50.890;3.932;2024-02-04T06:12:47;10.20;92.00
85671;DHT22;76102;50.890;3.932;2024-02-04T06:15:15;10.30;91.90
85671;DHT22;76102;50.890;3.932;2024-02-04T06:17:44;10.20;92.00
85671;DHT22;76102;50.890;3.932;2024-02-04T06:20:10;10.20;92.10
85671;DHT22;76102;50.890;3.932;2024-02-04T06:22:36;10.20;92.10
85671;DHT22;76102;50.890;3.932;2024-02-04T06:25:04;10.20;91.90
85671;DHT22;76102;50.890;3.932;2024-02-04T06:27:30;10.30;92.10
85671;DHT22;76102;50.890;3.932;2024-02-04T06:29:58;10.20;92.00
85671;DHT22;76102;50.890;3.932;2024-02-04T06:32:24;10.20;92.00
85671;DHT22;76102;50.890;3.932;2024-02-04T06:34:52;10.20;91.90
85671;DHT22;76102;50.890;3.932;2024-02-04T06:37:20;10.20;92.00
85671;DHT22;76102;50.890;3.932;2024-02-04T06:39:46;10.20;92.00
85671;DHT22;76102;50.890;3.932;2024-02-04T06:42:12;10.20;92.00
85671;DHT22;76102;50.890;3.932;2024-02-04T06:44:45;10.30;91.90
85671;DHT22;76102;50.890;3.932;2024-02-04T06:47:13;10.20;91.80
85671;DHT22;76102;50.890;3.932;2024-02-04T06:49:43;10.30;91.80
85671;DHT22;76102;50.890;3.932;2024-02-04T06:52:11;10.30;91.70
85671;DHT22;76102;50.890;3.932;2024-02-04T06:54:37;10.30;91.70
85671;DHT22;76102;50.890;3.932;2024-02-04T06:57:03;10.30;91.50
85671;DHT22;76102;50.890;3.932;2024-02-04T06:59:28;10.40;91.40
85671;DHT22;76102;50.890;3.932;2024-02-04T07:01:56;10.30;91.30
85671;DHT22;76102;50.890;3.932;2024-02-04T07:04:22;10.30;91.40
85671;DHT22;76102;50.890;3.932;2024-02-04T07:06:50;10.30;91.20
85671;DHT22;76102;50.890;3.932;2024-02-04T07:09:16;10.40;91.20
85671;DHT22;76102;50.890;3.932;2024-02-04T07:11:44;10.40;91.20
85671;DHT22;76102;50.890;3.932;2024-02-04T07:14:13;10.40;90.90
85671;DHT22;76102;50.890;3.932;2024-02-04T07:16:41;10.50;91.00
85671;DHT22;76102;50.890;3.932;2024-02-04T07:19:06;10.40;90.90
85671;DHT22;76102;50.890;3.932;2024-02-04T07:21:35;10.40;91.10
85671;DHT22;76102;50.890;3.932;2024-02-04T07:24:00;10.40;90.80
85671;DHT22;76102;50.890;3.932;2024-02-04T07:26:28;10.40;90.70
85671;DHT22;76102;50.890;3.932;2024-02-04T07:28:56;10.50;90.70
85671;DHT22;76102;50.890;3.932;2024-02-04T07:31:24;10.50;90.60
85671;DHT22;76102;50.890;3.932;2024-02-04T07:33:50;10.50;90.60
85671;DHT22;76102;50.890;3.932;2024-02-04T07:36:15;10.50;91.00
85671;DHT22;76102;50.890;3.932;2024-02-04T07:38:41;10.40;91.10
85671;DHT22;76102;50.890;3.932;2024-02-04T07:41:09;10.40;91.20
85671;DHT22;76102;50.890;3.932;2024-02-04T07:43:34;10.30;91.50
85671;DHT22;76102;50.890;3.932;2024-02-04T07:46:02;10.30;91.50
85671;DHT22;76102;50.890;3.932;2024-02-04T07:48:31;10.30;91.60
85671;DHT22;76102;50.890;3.932;2024-02-04T07:51:01;10.20;91.70
85671;DHT22;76102;50.890;3.932;2024-02-04T07:53:29;10.30;91.60
85671;DHT22;76102;50.890;3.932;2024-02-04T07:55:58;10.20;92.00
85671;DHT22;76102;50.890;3.932;2024-02-04T07:58:23;10.20;91.60
85671;DHT22;76102;50.890;3.932;2024-02-04T08:00:49;10.30;91.60
85671;DHT22;76102;50.890;3.932;2024-02-04T08:03:15;10.30;91.40
85671;DHT22;76102;50.890;3.932;2024-02-04T08:05:40;10.30;91.30
85671;DHT22;76102;50.890;3.932;2024-02-04T08:08:06;10.40;91.40
85671;DHT22;76102;50.890;3.932;2024-02-04T08:10:34;10.40;91.30
85671;DHT22;76102;50.890;3.932;2024-02-04T08:12:59;10.40;91.10
85671;DHT22;76102;50.890;3.932;2024-02-04T08:15:25;10.50;91.10
85671;DHT22;76102;50.890;3.932;2024-02-04T08:17:53;10.60;90.70
85671;DHT22;76102;50.890;3.932;2024-02-04T08:20:19;10.60;90.70
85671;DHT22;76102;50.890;3.932;2024-02-04T08:22:44;10.60;90.90
85671;DHT22;76102;50.890;3.932;2024-02-04T08:25:14;10.60;90.60
85671;DHT22;76102;50.890;3.932;2024-02-04T08:27:42;10.60;90.80
85671;DHT22;76102;50.890;3.932;2024-02-04T08:30:09;10.70;90.60
85671;DHT22;76102;50.890;3.932;2024-02-04T08:32:37;10.70;90.40
85671;DHT22;76102;50.890;3.932;2024-02-04T08:35:03;10.70;90.50
85671;DHT22;76102;50.890;3.932;2024-02-04T08:37:36;10.70;90.40
85671;DHT22;76102;50.890;3.932;2024-02-04T08:40:06;10.70;90.00
85671;DHT22;76102;50.890;3.932;2024-02-04T08:42:36;10.70;90.10
85671;DHT22;76102;50.890;3.932;2024-02-04T08:45:04;10.60;90.30
85671;DHT22;76102;50.890;3.932;2024-02-04T08:47:29;10.70;90.10
85671;DHT22;76102;50.890;3.932;2024-02-04T08:49:55;10.70;90.00
85671;DHT22;76102;50.890;3.932;2024-02-04T08:52:21;10.70;89.80
85671;DHT22;76102;50.890;3.932;2024-02-04T08:54:47;10.70;89.50
85671;DHT22;76102;50.890;3.932;2024-02-04T08:57:15;10.80;90.20
85671;DHT22;76102;50.890;3.932;2024-02-04T08:59:42;10.80;89.50
85671;DHT22;76102;50.890;3.932;2024-02-04T09:02:10;10.80;89.50
85671;DHT22;76102;50.890;3.932;2024-02-04T09:04:38;10.80;89.60
85671;DHT22;76102;50.890;3.932;2024-02-04T09:07:08;10.80;89.10
85671;DHT22;76102;50.890;3.932;2024-02-04T09:09:34;10.80;88.90
85671;DHT22;76102;50.890;3.932;2024-02-04T09:12:02;10.80;89.10
85671;DHT22;76102;50.890;3.932;2024-02-04T09:14:28;10.80;89.10
85671;DHT22;76102;50.890;3.932;2024-02-04T09:16:56;10.80;89.20
85671;DHT22;76102;50.890;3.932;2024-02-04T09:19:22;10.80;89.20
85671;DHT22;76102;50.890;3.932;2024-02-04T09:21:50;10.80;88.90
85671;DHT22;76102;50.890;3.932;2024-02-04T09:24:16;10.80;89.00
85671;DHT22;76102;50.890;3.932;2024-02-04T09:26:44;10.80;88.90
85671;DHT22;76102;50.890;3.932;2024-02-04T09:29:12;10.80;89.00
85671;DHT22;76102;50.890;3.932;2024-02-04T09:31:38;10.80;89.10
85671;DHT22;76102;50.890;3.932;2024-02-04T09:34:03;10.90;88.80
85671;DHT22;76102;50.890;3.932;2024-02-04T09:36:32;10.90;88.40
85671;DHT22;76102;50.890;3.932;2024-02-04T09:38:57;11.00;88.20
85671;DHT22;76102;50.890;3.932;2024-02-04T09:41:23;11.00;87.80
85671;DHT22;76102;50.890;3.932;2024-02-04T09:43:50;11.00;88.00
85671;DHT22;76102;50.890;3.932;2024-02-04T09:46:19;10.90;88.20
85671;DHT22;76102;50.890;3.932;2024-02-04T09:48:45;10.90;88.40
85671;DHT22;76102;50.890;3.932;2024-02-04T09:51:11;10.90;88.60
85671;DHT22;76102;50.890;3.932;2024-02-04T09:53:39;11.00;88.30
85671;DHT22;76102;50.890;3.932;2024-02-04T09:56:08;11.00;88.00
85671;DHT22;76102;50.890;3.932;2024-02-04T09:58:34;11.00;87.90
85671;DHT22;76102;50.890;3.932;2024-02-04T10:01:00;11.00;88.30
85671;DHT22;76102;50.890;3.932;2024-02-04T10:03:26;10.90;88.40
85671;DHT22;76102;50.890;3.932;2024-02-04T10:05:55;11.00;88.30
85671;DHT22;76102;50.890;3.932;2024-02-04T10:08:21;11.00;88.00
85671;DHT22;76102;50.890;3.932;2024-02-04T10:10:47;11.10;87.70
85671;DHT22;76102;50.890;3.932;2024-02-04T10:13:13;11.10;88.10
85671;DHT22;76102;50.890;3.932;2024-02-04T10:15:39;11.10;87.90
85671;DHT22;76102;50.890;3.932;2024-02-04T10:18:07;11.20;87.50
85671;DHT22;76102;50.890;3.932;2024-02-04T10:20:33;11.20;87.40
85671;DHT22;76102;50.890;3.932;2024-02-04T10:23:02;11.30;86.60
85671;DHT22;76102;50.890;3.932;2024-02-04T10:25:28;11.30;86.60
85671;DHT22;76102;50.890;3.932;2024-02-04T10:27:58;11.30;87.20
85671;DHT22;76102;50.890;3.932;2024-02-04T10:30:24;11.30;86.90
85671;DHT22;76102;50.890;3.932;2024-02-04T10:32:54;11.20;87.20
85671;DHT22;76102;50.890;3.932;2024-02-04T10:35:23;11.30;86.90
85671;DHT22;76102;50.890;3.932;2024-02-04T10:37:54;11.30;86.90
85671;DHT22;76102;50.890;3.932;2024-02-04T10:40:22;11.30;88.10
85671;DHT22;76102;50.890;3.932;2024-02-04T10:42:49;11.20;87.60
85671;DHT22;76102;50.890;3.932;2024-02-04T10:45:21;11.20;87.50
85671;DHT22;76102;50.890;3.932;2024-02-04T10:47:55;11.20;87.90
85671;DHT22;76102;50.890;3.932;2024-02-04T10:50:24;11.10;88.30
85671;DHT22;76102;50.890;3.932;2024-02-04T10:52:57;11.10;88.20
85671;DHT22;76102;50.890;3.932;2024-02-04T10:55:29;11.10;88.30
85671;DHT22;76102;50.890;3.932;2024-02-04T10:57:56;11.10;87.80
85671;DHT22;76102;50.890;3.932;2024-02-04T11:00:25;11.20;87.60
85671;DHT22;76102;50.890;3.932;2024-02-04T11:02:51;11.10;87.80
85671;DHT22;76102;50.890;3.932;2024-02-04T11:05:19;11.10;87.90
85671;DHT22;76102;50.890;3.932;2024-02-04T11:07:46;11.20;87.80
85671;DHT22;76102;50.890;3.932;2024-02-04T11:10:17;11.20;87.50
85671;DHT22;76102;50.890;3.932;2024-02-04T11:12:46;11.20;87.60
85671;DHT22;76102;50.890;3.932;2024-02-04T11:15:17;11.20;87.50
85671;DHT22;76102;50.890;3.932;2024-02-04T11:18:26;11.20;87.50
85671;DHT22;76102;50.890;3.932;2024-02-04T11:23:39;11.30;87.20
85671;DHT22;76102;50.890;3.932;2024-02-04T11:26:08;11.30;87.20
85671;DHT22;76102;50.890;3.932;2024-02-04T11:28:34;11.20;87.60
85671;DHT22;76102;50.890;3.932;2024-02-04T11:31:02;11.30;87.80
85671;DHT22;76102;50.890;3.932;2024-02-04T11:33:28;11.20;88.20
85671;DHT22;76102;50.890;3.932;2024-02-04T11:36:05;11.10;88.70
85671;DHT22;76102;50.890;3.932;2024-02-04T11:38:36;11.20;88.70
85671;DHT22;76102;50.890;3.932;2024-02-04T11:41:05;11.00;89.10
85671;DHT22;76102;50.890;3.932;2024-02-04T11:43:38;11.00;89.90
85671;DHT22;76102;50.890;3.932;2024-02-04T11:46:04;11.00;89.40
85671;DHT22;76102;50.890;3.932;2024-02-04T11:48:32;11.00;90.00
85671;DHT22;76102;50.890;3.932;2024-02-04T11:51:02;11.00;90.00
85671;DHT22;76102;50.890;3.932;2024-02-04T11:53:29;10.90;90.30
85671;DHT22;76102;50.890;3.932;2024-02-04T11:55:58;11.00;90.10
85671;DHT22;76102;50.890;3.932;2024-02-04T11:58:27;10.90;90.30
85671;DHT22;76102;50.890;3.932;2024-02-04T12:00:56;10.90;90.30
85671;DHT22;76102;50.890;3.932;2024-02-04T12:03:32;10.90;90.00
85671;DHT22;76102;50.890;3.932;2024-02-04T12:06:00;10.90;90.10
85671;DHT22;76102;50.890;3.932;2024-02-04T12:08:26;10.90;90.20
85671;DHT22;76102;50.890;3.932;2024-02-04T12:10:53;10.90;90.30
85671;DHT22;76102;50.890;3.932;2024-02-04T12:13:19;10.90;90.10
85671;DHT22;76102;50.890;3.932;2024-02-04T12:15:47;10.90;89.70
85671;DHT22;76102;50.890;3.932;2024-02-04T12:18:14;10.90;90.20
85671;DHT22;76102;50.890;3.932;2024-02-04T12:20:44;10.90;90.50
85671;DHT22;76102;50.890;3.932;2024-02-04T12:23:15;10.90;89.80
85671;DHT22;76102;50.890;3.932;2024-02-04T12:25:40;10.90;90.00
85671;DHT22;76102;50.890;3.932;2024-02-04T12:28:09;10.90;90.30
85671;DHT22;76102;50.890;3.932;2024-02-04T12:30:39;10.90;90.20
85671;DHT22;76102;50.890;3.932;2024-02-04T12:33:07;10.90;90.20
85671;DHT22;76102;50.890;3.932;2024-02-04T12:35:34;11.00;90.20
85671;DHT22;76102;50.890;3.932;2024-02-04T12:38:00;11.00;90.10
85671;DHT22;76102;50.890;3.932;2024-02-04T12:40:30;10.90;90.40
85671;DHT22;76102;50.890;3.932;2024-02-04T12:43:02;10.90;90.60
85671;DHT22;76102;50.890;3.932;2024-02-04T12:45:29;10.90;90.70
85671;DHT22;76102;50.890;3.932;2024-02-04T12:47:58;11.00;90.60
85671;DHT22;76102;50.890;3.932;2024-02-04T12:50:28;10.90;90.70
85671;DHT22;76102;50.890;3.932;2024-02-04T12:53:07;11.00;90.80
85671;DHT22;76102;50.890;3.932;2024-02-04T12:55:37;11.00;91.20
85671;DHT22;76102;50.890;3.932;2024-02-04T12:58:08;11.10;90.80
85671;DHT22;76102;50.890;3.932;2024-02-04T13:00:37;11.10;90.70
85671;DHT22;76102;50.890;3.932;2024-02-04T13:03:07;11.10;90.40
85671;DHT22;76102;50.890;3.932;2024-02-04T13:05:37;11.00;90.60
85671;DHT22;76102;50.890;3.932;2024-02-04T13:08:04;11.10;90.60
85671;DHT22;76102;50.890;3.932;2024-02-04T13:10:34;11.00;91.00
85671;DHT22;76102;50.890;3.932;2024-02-04T13:13:08;11.00;90.90
85671;DHT22;76102;50.890;3.932;2024-02-04T13:15:40;11.00;90.90
85671;DHT22;76102;50.890;3.932;2024-02-04T13:18:07;10.90;91.10
85671;DHT22;76102;50.890;3.932;2024-02-04T13:20:35;10.90;91.30
85671;DHT22;76102;50.890;3.932;2024-02-04T13:23:01;10.90;91.40
85671;DHT22;76102;50.890;3.932;2024-02-04T13:25:30;10.90;91.40
85671;DHT22;76102;50.890;3.932;2024-02-04T13:27:56;10.90;91.10
85671;DHT22;76102;50.890;3.932;2024-02-04T13:30:24;10.90;91.10
85671;DHT22;76102;50.890;3.932;2024-02-04T13:32:50;10.90;90.90
85671;DHT22;76102;50.890;3.932;2024-02-04T13:35:16;10.90;91.10
85671;DHT22;76102;50.890;3.932;2024-02-04T13:37:48;10.90;91.20
85671;DHT22;76102;50.890;3.932;2024-02-04T13:40:20;10.80;91.10
85671;DHT22;76102;50.890;3.932;2024-02-04T13:42:47;10.80;91.00
85671;DHT22;76102;50.890;3.932;2024-02-04T13:45:15;10.90;90.90
85671;DHT22;76102;50.890;3.932;2024-02-04T13:47:44;10.90;90.90
85671;DHT22;76102;50.890;3.932;2024-02-04T13:50:10;11.00;90.70
85671;DHT22;76102;50.890;3.932;2024-02-04T13:52:41;11.00;90.80
85671;DHT22;76102;50.890;3.932;2024-02-04T13:55:06;11.00;90.40
85671;DHT22;76102;50.890;3.932;2024-02-04T13:57:33;11.00;90.50
85671;DHT22;76102;50.890;3.932;2024-02-04T14:00:04;11.00;90.40
85671;DHT22;76102;50.890;3.932;2024-02-04T14:02:34;11.10;90.80
85671;DHT22;76102;50.890;3.932;2024-02-04T14:05:00;11.10;90.60
85671;DHT22;76102;50.890;3.932;2024-02-04T14:07:26;11.00;90.70
85671;DHT22;76102;50.890;3.932;2024-02-04T14:09:56;11.00;90.50
85671;DHT22;76102;50.890;3.932;2024-02-04T14:12:22;11.00;90.50
85671;DHT22;76102;50.890;3.932;2024-02-04T14:14:47;11.00;90.30
85671;DHT22;76102;50.890;3.932;2024-02-04T14:17:13;11.00;90.20
85671;DHT22;76102;50.890;3.932;2024-02-04T14:19:39;11.00;90.20
85671;DHT22;76102;50.890;3.932;2024-02-04T14:22:04;11.10;90.20
85671;DHT22;76102;50.890;3.932;2024-02-04T14:24:30;11.10;90.10
85671;DHT22;76102;50.890;3.932;2024-02-04T14:26:56;11.10;90.50
85671;DHT22;76102;50.890;3.932;2024-02-04T14:29:25;11.10;90.40
85671;DHT22;76102;50.890;3.932;2024-02-04T14:31:56;11.20;90.00
85671;DHT22;76102;50.890;3.932;2024-02-04T14:34:23;11.20;90.00
85671;DHT22;76102;50.890;3.932;2024-02-04T14:36:51;11.20;89.80
85671;DHT22;76102;50.890;3.932;2024-02-04T14:39:19;11.10;89.80
85671;DHT22;76102;50.890;3.932;2024-02-04T14:41:49;11.10;89.60
85671;DHT22;76102;50.890;3.932;2024-02-04T14:44:15;11.10;89.70
85671;DHT22;76102;50.890;3.932;2024-02-04T14:46:42;11.10;89.90
85671;DHT22;76102;50.890;3.932;2024-02-04T14:49:09;11.20;89.80
85671;DHT22;76102;50.890;3.932;2024-02-04T14:51:40;11.20;89.20
85671;DHT22;76102;50.890;3.932;2024-02-04T14:54:06;11.20;88.90
85671;DHT22;76102;50.890;3.932;2024-02-04T14:56:39;11.20;88.60
85671;DHT22;76102;50.890;3.932;2024-02-04T14:59:09;11.30;88.50
85671;DHT22;76102;50.890;3.932;2024-02-04T15:01:38;11.30;87.90
85671;DHT22;76102;50.890;3.932;2024-02-04T15:04:06;11.20;87.90
85671;DHT22;76102;50.890;3.932;2024-02-04T15:06:31;11.20;87.90
85671;DHT22;76102;50.890;3.932;2024-02-04T15:09:05;11.20;87.50
85671;DHT22;76102;50.890;3.932;2024-02-04T15:11:30;11.20;87.30
85671;DHT22;76102;50.890;3.932;2024-02-04T15:13:59;11.20;87.60
85671;DHT22;76102;50.890;3.932;2024-02-04T15:16:26;11.20;87.50
85671;DHT22;76102;50.890;3.932;2024-02-04T15:18:51;11.20;87.30
85671;DHT22;76102;50.890;3.932;2024-02-04T15:21:20;11.20;86.90
85671;DHT22;76102;50.890;3.932;2024-02-04T15:23:46;11.10;87.10
85671;DHT22;76102;50.890;3.932;2024-02-04T15:26:15;11.20;86.90
85671;DHT22;76102;50.890;3.932;2024-02-04T15:28:41;11.20;86.80
85671;DHT22;76102;50.890;3.932;2024-02-04T15:31:23;11.20;86.50
85671;DHT22;76102;50.890;3.932;2024-02-04T15:33:54;11.20;86.80
85671;DHT22;76102;50.890;3.932;2024-02-04T15:36:25;11.20;86.60
85671;DHT22;76102;50.890;3.932;2024-02-04T15:38:51;11.20;86.10
85671;DHT22;76102;50.890;3.932;2024-02-04T15:41:17;11.20;86.30
85671;DHT22;76102;50.890;3.932;2024-02-04T15:43:42;11.10;86.50